Time;durP1;ratioP1;P1;durP2;ratioP2;P2;SDS_P1;SDS_P2;PMS_P1;PMS_P2;Temp;Humidity;BMP_temperature;BMP_pressure;BME280_temperature;BME280_humidity;BME280_pressure;Samples;Min_cycle;Max_cycle;Signal;HPM_P1;HPM_P2
2022/07/27 00:02:22;;;;;;;;;;;;;;;;;;5048358;28;19916;-79
2022/07/27 00:05:09;;;;;;;;;;;;;;;;;;5046101;28;20463;-79
2022/07/27 00:07:55;;;;;;;;;;;;;;;;;;5043311;28;19928;-79
2022/07/27 00:10:42;;;;;;;;;;;;;;;;;;5045429;28;20539;-79
2022/07/27 00:13:28;;;;;;;;;;;;;;;;;;5047872;28;19925;-78
2022/07/27 00:16:15;;;;;;;;;;;;;;;;;;5047599;28;20349;-78
2022/07/27 00:19:01;;;;;;;;;;;;;;;;;;5046027;28;19923;-78
2022/07/27 00:21:48;;;;;;;;;;;;;;;;;;5030412;28;19979;-78
2022/07/27 00:24:34;;;;;;;;;;;;;;;;;;5042244;28;19913;-78
2022/07/27 00:27:21;;;;;;;;;;;;;;;;;;5044348;28;19912;-79
2022/07/27 00:30:07;;;;;;;;;;;;;;;;;;5042309;28;19919;-79
2022/07/27 00:32:55;;;;;;;;;;;;;;;;;;5045807;28;19912;-79
2022/07/27 00:35:42;;;;;;;;;;;;;;;;;;5045997;28;19924;-79
2022/07/27 00:38:28;;;;;;;;;;;;;;;;;;5045410;28;20165;-80
2022/07/27 00:41:15;;;;;;;;;;;;;;;;;;5044733;28;19931;-79
2022/07/27 00:44:04;;;;;;;;;;;;;;;;;;5046816;28;19917;-79
2022/07/27 00:46:50;;;;;;;;;;;;;;;;;;5045612;28;19913;-78
2022/07/27 00:49:36;;;;;;;;;;;;;;;;;;5047275;28;19940;-78
2022/07/27 00:52:23;;;;;;;;;;;;;;;;;;5044816;28;19912;-78
2022/07/27 00:55:09;;;;;;;;;;;;;;;;;;5046854;28;19920;-78
2022/07/27 00:57:56;;;;;;;;;;;;;;;;;;5045450;28;19920;-78
2022/07/27 01:00:43;;;;;;;;;;;;;;;;;;5045804;28;19931;-78
2022/07/27 01:03:29;;;;;;;;;;;;;;;;;;5046579;28;19936;-79
2022/07/27 01:06:16;;;;;;;;;;;;;;;;;;5044604;28;20288;-79
2022/07/27 01:12:07;;;;;;;;;;;;;;;;;;5043954;28;19925;-77
2022/07/27 01:14:54;;;;;;;;;;;;;;;;;;5040104;28;19932;-77
2022/07/27 01:17:40;;;;;;;;;;;;;;;;;;5039598;28;19939;-81
2022/07/27 01:20:27;;;;;;;;;;;;;;;;;;5044113;28;19921;-79
2022/07/27 01:23:13;;;;;;;;;;;;;;;;;;5042368;28;19913;-79
2022/07/27 01:26:00;;;;;;;;;;;;;;;;;;5028798;28;19955;-77
2022/07/27 01:28:46;;;;;;;;;;;;;;;;;;5042122;28;19923;-77
2022/07/27 01:31:33;;;;;;;;;;;;;;;;;;5042442;28;19924;-77
2022/07/27 01:34:19;;;;;;;;;;;;;;;;;;5044657;28;19951;-77
2022/07/27 01:37:06;;;;;;;;;;;;;;;;;;5030396;28;20285;-77
2022/07/27 01:39:55;;;;;;;;;;;;;;;;;;5042622;28;19913;-78
2022/07/27 01:42:42;;;;;;;;;;;;;;;;;;5043148;28;19917;-77
2022/07/27 01:45:28;;;;;;;;;;;;;;;;;;5040557;28;19916;-77
2022/07/27 01:48:15;;;;;;;;;;;;;;;;;;5043831;28;19917;-77
2022/07/27 01:51:01;;;;;;;;;;;;;;;;;;5043577;28;19932;-77
2022/07/27 01:53:48;;;;;;;;;;;;;;;;;;5044847;28;20431;-77
2022/07/27 01:56:34;;;;;;;;;;;;;;;;;;5042304;28;19919;-78
2022/07/27 01:59:21;;;;;;;;;;;;;;;;;;5041361;28;20054;-77
2022/07/27 02:02:07;;;;;;;;;;;;;;;;;;5043895;28;20168;-78
2022/07/27 02:04:54;;;;;;;;;;;;;;;;;;5039599;28;20587;-78
2022/07/27 02:07:40;;;;;;;;;;;;;;;;;;5044367;28;19919;-78
2022/07/27 02:10:27;;;;;;;;;;;;;;;;;;5044566;28;19913;-78
2022/07/27 02:13:13;;;;;;;;;;;;;;;;;;5029399;28;20615;-77
2022/07/27 02:16:00;;;;;;;;;;;;;;;;;;5042783;28;19929;-78
2022/07/27 02:18:46;;;;;;;;;;;;;;;;;;5045035;28;20671;-78
2022/07/27 02:21:33;;;;;;;;;;;;;;;;;;5044310;28;19936;-78
2022/07/27 02:24:19;;;;;;;;;;;;;;;;;;5029161;28;19916;-76
2022/07/27 02:27:06;;;;;;;;;;;;;;;;;;5044012;28;19929;-77
2022/07/27 02:29:52;;;;;;;;;;;;;;;;;;5044746;28;19920;-76
2022/07/27 02:32:39;;;;;;;;;;;;;;;;;;5042639;28;20414;-77
2022/07/27 02:35:26;;;;;;;;;;;;;;;;;;5044473;28;19913;-77
2022/07/27 02:38:12;;;;;;;;;;;;;;;;;;5043624;28;19917;-77
2022/07/27 02:40:59;;;;;;;;;;;;;;;;;;5042817;28;19927;-78
2022/07/27 02:43:45;;;;;;;;;;;;;;;;;;5044330;28;20434;-78
2022/07/27 02:46:32;;;;;;;;;;;;;;;;;;5043674;28;19913;-78
2022/07/27 02:49:18;;;;;;;;;;;;;;;;;;5043878;28;20025;-78
2022/07/27 02:52:05;;;;;;;;;;;;;;;;;;5040890;28;19923;-77
2022/07/27 02:54:51;;;;;;;;;;;;;;;;;;5041878;28;19913;-77
2022/07/27 02:57:39;;;;;;;;;;;;;;;;;;5044303;28;19923;-77
2022/07/27 03:00:27;;;;;;;;;;;;;;;;;;5026156;28;19931;-78
2022/07/27 03:03:14;;;;;;;;;;;;;;;;;;5043602;28;19912;-78
2022/07/27 03:06:00;;;;;;;;;;;;;;;;;;5028489;28;19913;-78
2022/07/27 03:08:47;;;;;;;;;;;;;;;;;;5042345;28;19916;-77
2022/07/27 03:11:33;;;;;;;;;;;;;;;;;;5038000;28;19924;-77
2022/07/27 03:14:20;;;;;;;;;;;;;;;;;;5039379;28;19951;-78
2022/07/27 03:17:06;;;;;;;;;;;;;;;;;;5040655;28;19917;-77
2022/07/27 03:19:53;;;;;;;;;;;;;;;;;;5043230;28;19919;-77
2022/07/27 03:22:39;;;;;;;;;;;;;;;;;;5041525;28;19924;-78
2022/07/27 03:25:26;;;;;;;;;;;;;;;;;;5041207;28;20238;-78
2022/07/27 03:28:12;;;;;;;;;;;;;;;;;;5043890;28;19912;-77
2022/07/27 03:30:59;;;;;;;;;;;;;;;;;;5043433;28;20403;-78
2022/07/27 03:33:45;;;;;;;;;;;;;;;;;;5040728;28;19912;-77
2022/07/27 03:36:31;;;;;;;;;;;;;;;;;;5029602;28;20574;-77
2022/07/27 03:39:18;;;;;;;;;;;;;;;;;;5045293;28;19916;-77
2022/07/27 03:42:04;;;;;;;;;;;;;;;;;;5044000;28;20303;-76
2022/07/27 03:44:51;;;;;;;;;;;;;;;;;;5045865;28;19913;-77
2022/07/27 03:47:37;;;;;;;;;;;;;;;;;;5044282;28;19924;-76
2022/07/27 03:50:24;;;;;;;;;;;;;;;;;;5045394;28;19965;-76
2022/07/27 03:53:10;;;;;;;;;;;;;;;;;;5046360;28;19919;-77
2022/07/27 03:55:57;;;;;;;;;;;;;;;;;;5041650;28;19923;-76
2022/07/27 03:58:45;;;;;;;;;;;;;;;;;;5044326;28;19919;-77
2022/07/27 04:01:31;;;;;;;;;;;;;;;;;;5028866;28;19924;-77
2022/07/27 04:04:18;;;;;;;;;;;;;;;;;;5045308;28;20316;-77
2022/07/27 04:07:04;;;;;;;;;;;;;;;;;;5044356;28;19913;-77
2022/07/27 04:09:50;;;;;;;;;;;;;;;;;;5043032;28;20300;-77
2022/07/27 04:12:37;;;;;;;;;;;;;;;;;;5041737;28;19913;-77
2022/07/27 04:15:24;;;;;;;;;;;;;;;;;;5045712;28;19931;-77
2022/07/27 04:18:10;;;;;;;;;;;;;;;;;;5047034;28;20488;-77
2022/07/27 04:20:58;;;;;;;;;;;;;;;;;;5043103;28;19925;-77
2022/07/27 04:23:44;;;;;;;;;;;;;;;;;;5044435;28;19920;-76
2022/07/27 04:26:31;;;;;;;;;;;;;;;;;;5044962;28;20636;-77
2022/07/27 04:29:17;;;;;;;;;;;;;;;;;;5042982;28;19996;-77
2022/07/27 04:32:04;;;;;;;;;;;;;;;;;;5045177;28;19916;-77
2022/07/27 04:34:50;;;;;;;;;;;;;;;;;;5030007;28;19913;-78
2022/07/27 04:37:37;;;;;;;;;;;;;;;;;;5046890;28;19913;-78
2022/07/27 04:40:23;;;;;;;;;;;;;;;;;;5046717;28;19925;-77
2022/07/27 04:43:10;;;;;;;;;;;;;;;;;;5043144;28;20373;-78
2022/07/27 04:45:56;;;;;;;;;;;;;;;;;;5042977;28;19920;-77
2022/07/27 04:48:43;;;;;;;;;;;;;;;;;;5030536;28;19913;-77
2022/07/27 04:51:29;;;;;;;;;;;;;;;;;;5045661;28;20293;-77
2022/07/27 04:54:16;;;;;;;;;;;;;;;;;;5042488;28;19920;-77
2022/07/27 04:57:02;;;;;;;;;;;;;;;;;;5046339;28;19923;-78
2022/07/27 04:59:49;;;;;;;;;;;;;;;;;;5045316;28;20284;-77
2022/07/27 05:02:35;;;;;;;;;;;;;;;;;;5041423;28;19928;-77
2022/07/27 05:05:22;;;;;;;;;;;;;;;;;;5044295;28;19917;-77
2022/07/27 05:08:09;;;;;;;;;;;;;;;;;;5043245;28;19920;-77
2022/07/27 05:10:56;;;;;;;;;;;;;;;;;;5044226;28;19913;-76
2022/07/27 05:13:42;;;;;;;;;;;;;;;;;;5043107;28;19947;-77
2022/07/27 05:16:29;;;;;;;;;;;;;;;;;;5044437;28;19924;-76
2022/07/27 05:19:15;;;;;;;;;;;;;;;;;;5043921;28;19927;-76
2022/07/27 05:22:02;;;;;;;;;;;;;;;;;;5042197;28;20245;-76
2022/07/27 05:24:48;;;;;;;;;;;;;;;;;;5043334;28;19923;-77
2022/07/27 05:27:36;;;;;;;;;;;;;;;;;;5030042;28;19917;-78
2022/07/27 05:30:23;;;;;;;;;;;;;;;;;;5029668;28;20296;-77
2022/07/27 05:33:10;;;;;;;;;;;;;;;;;;5041937;28;19917;-78
2022/07/27 05:35:57;;;;;;;;;;;;;;;;;;5041926;28;20286;-78
2022/07/27 05:38:43;;;;;;;;;;;;;;;;;;5041449;28;19920;-78
2022/07/27 05:41:30;;;;;;;;;;;;;;;;;;5028636;28;19932;-78
2022/07/27 05:44:17;;;;;;;;;;;;;;;;;;5044976;28;20490;-79
2022/07/27 05:47:03;;;;;;;;;;;;;;;;;;5044208;28;19917;-78
2022/07/27 05:49:49;;;;;;;;;;;;;;;;;;5042583;28;19920;-78
2022/07/27 05:52:37;;;;;;;;;;;;;;;;;;5042152;28;20319;-77
2022/07/27 05:55:25;;;;;;;;;;;;;;;;;;5043250;28;19917;-78
2022/07/27 05:58:12;;;;;;;;;;;;;;;;;;5038807;28;19913;-78
2022/07/27 06:00:58;;;;;;;;;;;;;;;;;;5040451;28;19924;-77
2022/07/27 06:03:45;;;;;;;;;;;;;;;;;;5026506;28;19927;-77
2022/07/27 06:09:37;;;;;;;;;;;;;;;;;;5043440;28;19928;-76
2022/07/27 06:12:23;;;;;;;;;;;;;;;;;;5040454;28;19924;-77
2022/07/27 06:15:10;;;;;;;;;;;;;;;;;;5023344;28;20314;-77
2022/07/27 06:17:57;;;;;;;;;;;;;;;;;;5019403;28;19928;-77
2022/07/27 06:20:44;;;;;;;;;;;;;;;;;;5009287;28;19932;-77
2022/07/27 06:23:31;;;;;;;;;;;;;;;;;;5017339;28;19917;-78
2022/07/27 06:26:17;;;;;;;;;;;;;;;;;;5019296;28;19932;-77
2022/07/27 06:29:04;;;;;;;;;;;;;;;;;;5020571;28;19924;-77
2022/07/27 06:31:51;;;;;;;;;;;;;;;;;;5019243;28;20557;-78
2022/07/27 06:34:38;;;;;;;;;;;;;;;;;;5022364;28;19917;-77
2022/07/27 06:37:26;;;;;;;;;;;;;;;;;;5021441;28;20277;-78
2022/07/27 06:40:12;;;;;;;;;;;;;;;;;;5022327;28;20392;-78
2022/07/27 06:42:59;;;;;;;;;;;;;;;;;;5019258;28;19929;-76
2022/07/27 06:45:46;;;;;;;;;;;;;;;;;;5022860;28;19909;-76
2022/07/27 06:48:33;;;;;;;;;;;;;;;;;;5026378;28;19917;-75
2022/07/27 06:51:22;;;;;;;;;;;;;;;;;;5029238;28;19919;-76
2022/07/27 06:54:08;;;;;;;;;;;;;;;;;;5030444;28;19913;-75
2022/07/27 06:56:54;;;;;;;;;;;;;;;;;;5029007;28;19909;-76
2022/07/27 06:59:41;;;;;;;;;;;;;;;;;;5028770;28;19927;-76
2022/07/27 07:02:28;;;;;;;;;;;;;;;;;;5026238;28;19957;-76
2022/07/27 07:05:14;;;;;;;;;;;;;;;;;;5023100;28;20364;-76
2022/07/27 07:08:01;;;;;;;;;;;;;;;;;;5018715;28;19965;-76
2022/07/27 07:10:48;;;;;;;;;;;;;;;;;;5024691;28;19920;-75
2022/07/27 07:13:34;;;;;;;;;;;;;;;;;;5027186;28;19921;-75
2022/07/27 07:16:21;;;;;;;;;;;;;;;;;;5043971;28;19917;-75
2022/07/27 07:19:07;;;;;;;;;;;;;;;;;;5044184;28;20359;-76
2022/07/27 07:21:54;;;;;;;;;;;;;;;;;;5046849;28;19931;-75
2022/07/27 07:24:40;;;;;;;;;;;;;;;;;;5043996;28;19921;-76
2022/07/27 07:27:27;;;;;;;;;;;;;;;;;;5042761;28;19928;-77
2022/07/27 07:30:14;;;;;;;;;;;;;;;;;;5043049;28;20004;-77
2022/07/27 07:33:00;;;;;;;;;;;;;;;;;;5030271;28;19921;-77
2022/07/27 07:35:47;;;;;;;;;;;;;;;;;;5044450;28;19943;-77
2022/07/27 07:38:33;;;;;;;;;;;;;;;;;;5045148;28;19912;-76
2022/07/27 07:41:19;;;;;;;;;;;;;;;;;;5049041;28;19925;-76
2022/07/27 07:44:06;;;;;;;;;;;;;;;;;;5046690;28;19916;-76
2022/07/27 07:46:53;;;;;;;;;;;;;;;;;;5044807;28;19917;-76
2022/07/27 07:49:40;;;;;;;;;;;;;;;;;;5045393;28;19917;-76
2022/07/27 07:52:26;;;;;;;;;;;;;;;;;;5043571;28;19920;-75
2022/07/27 07:55:13;;;;;;;;;;;;;;;;;;5044733;28;19919;-76
2022/07/27 07:58:00;;;;;;;;;;;;;;;;;;5047301;28;19916;-76
2022/07/27 08:00:47;;;;;;;;;;;;;;;;;;5047463;28;19943;-77
2022/07/27 08:03:33;;;;;;;;;;;;;;;;;;5046550;28;19923;-77
2022/07/27 08:06:21;;;;;;;;;;;;;;;;;;5042513;28;19917;-78
2022/07/27 08:09:08;;;;;;;;;;;;;;;;;;5042777;28;19917;-78
2022/07/27 08:11:55;;;;;;;;;;;;;;;;;;5043679;28;20369;-78
2022/07/27 08:14:41;;;;;;;;;;;;;;;;;;5045472;28;19964;-78
2022/07/27 08:17:28;;;;;;;;;;;;;;;;;;5043452;28;19921;-77
2022/07/27 08:20:14;;;;;;;;;;;;;;;;;;5027885;28;19919;-78
2022/07/27 08:23:01;;;;;;;;;;;;;;;;;;5030005;28;19935;-79
2022/07/27 08:25:48;;;;;;;;;;;;;;;;;;5028116;28;19923;-79
2022/07/27 08:28:35;;;;;;;;;;;;;;;;;;5044294;28;19920;-78
2022/07/27 08:31:21;;;;;;;;;;;;;;;;;;5028135;28;19916;-79
2022/07/27 08:34:08;;;;;;;;;;;;;;;;;;5045165;28;19912;-79
2022/07/27 08:36:55;;;;;;;;;;;;;;;;;;5027457;28;19935;-78
2022/07/27 08:39:41;;;;;;;;;;;;;;;;;;5028728;28;19922;-81
2022/07/27 08:42:34;;;;;;;;;;;;;;;;;;5029885;28;20642;-79
2022/07/27 08:45:21;;;;;;;;;;;;;;;;;;5029817;28;19916;-78
2022/07/27 08:48:09;;;;;;;;;;;;;;;;;;5044500;28;19919;-81
2022/07/27 08:50:56;;;;;;;;;;;;;;;;;;5044111;28;19916;-79
2022/07/27 08:53:42;;;;;;;;;;;;;;;;;;5044286;28;19913;-79
2022/07/27 08:56:29;;;;;;;;;;;;;;;;;;5045712;28;20357;-78
2022/07/27 08:59:15;;;;;;;;;;;;;;;;;;5043282;28;19913;-78
2022/07/27 09:02:02;;;;;;;;;;;;;;;;;;5043449;28;19940;-79
2022/07/27 09:04:48;;;;;;;;;;;;;;;;;;5045250;28;19920;-82
2022/07/27 09:07:35;;;;;;;;;;;;;;;;;;5043272;28;19923;-80
2022/07/27 09:10:22;;;;;;;;;;;;;;;;;;5047263;28;19920;-80
2022/07/27 09:13:08;;;;;;;;;;;;;;;;;;5034065;28;19949;-80
2022/07/27 09:15:54;;;;;;;;;;;;;;;;;;5043314;28;19925;-79
2022/07/27 09:18:41;;;;;;;;;;;;;;;;;;5045644;28;19921;-80
2022/07/27 09:21:27;;;;;;;;;;;;;;;;;;5042053;28;19975;-79
2022/07/27 09:24:14;;;;;;;;;;;;;;;;;;5042378;28;19917;-79
2022/07/27 09:27:01;;;;;;;;;;;;;;;;;;5044079;28;19912;-79
2022/07/27 09:29:47;;;;;;;;;;;;;;;;;;5042961;28;19924;-78
2022/07/27 09:32:34;;;;;;;;;;;;;;;;;;5038290;28;19947;-79
2022/07/27 09:35:20;;;;;;;;;;;;;;;;;;5042894;28;20290;-79
2022/07/27 09:38:06;;;;;;;;;;;;;;;;;;5043716;28;19912;-79
2022/07/27 09:40:53;;;;;;;;;;;;;;;;;;5042302;28;20003;-77
2022/07/27 09:43:39;;;;;;;;;;;;;;;;;;5043565;28;19920;-78
2022/07/27 09:46:26;;;;;;;;;;;;;;;;;;5042566;28;19917;-78
2022/07/27 09:49:12;;;;;;;;;;;;;;;;;;5042911;28;19938;-78
2022/07/27 09:51:59;;;;;;;;;;;;;;;;;;5044041;28;20028;-77
2022/07/27 09:54:46;;;;;;;;;;;;;;;;;;5039125;28;19919;-78
2022/07/27 09:57:32;;;;;;;;;;;;;;;;;;5043203;28;19917;-77
2022/07/27 10:00:18;;;;;;;;;;;;;;;;;;5041640;28;20457;-81
2022/07/27 10:03:05;;;;;;;;;;;;;;;;;;5040360;28;20601;-78
2022/07/27 10:05:51;;;;;;;;;;;;;;;;;;5043362;28;19921;-79
2022/07/27 10:08:38;;;;;;;;;;;;;;;;;;5041312;28;19916;-79
2022/07/27 10:11:24;;;;;;;;;;;;;;;;;;5040337;28;19924;-79
2022/07/27 10:14:11;;;;;;;;;;;;;;;;;;5042956;28;19929;-79
2022/07/27 10:16:57;;;;;;;;;;;;;;;;;;5041959;28;19912;-78
2022/07/27 10:19:44;;;;;;;;;;;;;;;;;;5042820;28;20368;-78
2022/07/27 10:22:30;;;;;;;;;;;;;;;;;;5026359;28;20300;-78
2022/07/27 10:25:17;;;;;;;;;;;;;;;;;;5042365;28;19920;-78
2022/07/27 10:28:03;;;;;;;;;;;;;;;;;;5042864;28;20104;-78
2022/07/27 10:30:50;;;;;;;;;;;;;;;;;;5039106;28;19923;-79
2022/07/27 10:33:37;;;;;;;;;;;;;;;;;;5042009;28;19920;-79
2022/07/27 10:36:23;;;;;;;;;;;;;;;;;;5044092;28;19921;-88
2022/07/27 10:39:10;;;;;;;;;;;;;;;;;;5029516;28;19931;-84
2022/07/27 10:41:56;;;;;;;;;;;;;;;;;;5042253;28;19917;-83
2022/07/27 10:44:43;;;;;;;;;;;;;;;;;;5042219;28;19916;-83
2022/07/27 10:47:29;;;;;;;;;;;;;;;;;;5039866;28;19913;-83
2022/07/27 10:50:16;;;;;;;;;;;;;;;;;;5043822;28;19924;-85
2022/07/27 10:53:02;;;;;;;;;;;;;;;;;;5043035;28;19909;-85
2022/07/27 10:55:49;;;;;;;;;;;;;;;;;;5041115;28;19916;-84
2022/07/27 10:58:35;;;;;;;;;;;;;;;;;;5039142;28;20450;-83
2022/07/27 11:01:22;;;;;;;;;;;;;;;;;;5041799;28;19924;-82
2022/07/27 11:04:08;;;;;;;;;;;;;;;;;;5038990;28;19912;-84
2022/07/27 11:06:55;;;;;;;;;;;;;;;;;;5040368;28;19913;-83
2022/07/27 11:09:42;;;;;;;;;;;;;;;;;;5043648;28;19917;-84
2022/07/27 11:12:28;;;;;;;;;;;;;;;;;;5027844;28;20520;-84
2022/07/27 11:15:15;;;;;;;;;;;;;;;;;;5040161;28;20448;-85
2022/07/27 11:18:01;;;;;;;;;;;;;;;;;;5045549;28;19916;-84
2022/07/27 11:20:47;;;;;;;;;;;;;;;;;;5043132;28;19921;-84
2022/07/27 11:23:34;;;;;;;;;;;;;;;;;;5041480;28;19920;-84
2022/07/27 11:26:20;;;;;;;;;;;;;;;;;;5026707;28;19917;-84
2022/07/27 11:29:07;;;;;;;;;;;;;;;;;;5043823;28;19917;-83
2022/07/27 11:31:54;;;;;;;;;;;;;;;;;;5041093;28;19913;-84
2022/07/27 11:34:40;;;;;;;;;;;;;;;;;;5027182;28;19916;-84
2022/07/27 11:37:27;;;;;;;;;;;;;;;;;;5042815;28;19917;-84
2022/07/27 11:40:14;;;;;;;;;;;;;;;;;;5042508;28;19913;-84
2022/07/27 11:43:01;;;;;;;;;;;;;;;;;;5043179;28;19932;-84
2022/07/27 11:45:47;;;;;;;;;;;;;;;;;;5043682;28;20533;-83
2022/07/27 11:48:34;;;;;;;;;;;;;;;;;;5041746;28;19919;-84
2022/07/27 11:51:20;;;;;;;;;;;;;;;;;;5042328;28;19917;-84
2022/07/27 11:54:07;;;;;;;;;;;;;;;;;;5041499;28;20377;-84
2022/07/27 11:56:53;;;;;;;;;;;;;;;;;;5044402;28;20380;-84
2022/07/27 11:59:40;;;;;;;;;;;;;;;;;;5048121;28;19917;-84
2022/07/27 12:02:26;;;;;;;;;;;;;;;;;;5045987;28;19931;-84
2022/07/27 12:05:13;;;;;;;;;;;;;;;;;;5045812;28;20679;-84
2022/07/27 12:07:59;;;;;;;;;;;;;;;;;;5045725;28;19913;-84
2022/07/27 12:10:46;;;;;;;;;;;;;;;;;;5043828;28;19913;-84
2022/07/27 12:13:32;;;;;;;;;;;;;;;;;;5046694;28;20249;-84
2022/07/27 12:16:19;;;;;;;;;;;;;;;;;;5046244;28;19936;-84
2022/07/27 12:19:05;;;;;;;;;;;;;;;;;;5046713;28;20276;-84
2022/07/27 12:21:52;;;;;;;;;;;;;;;;;;5043112;28;19932;-85
2022/07/27 12:24:38;;;;;;;;;;;;;;;;;;5045358;28;19913;-84
2022/07/27 12:27:25;;;;;;;;;;;;;;;;;;5045958;28;19943;-85
2022/07/27 12:30:11;;;;;;;;;;;;;;;;;;5046549;28;19928;-85
2022/07/27 12:32:58;;;;;;;;;;;;;;;;;;5045441;28;20285;-85
2022/07/27 12:35:45;;;;;;;;;;;;;;;;;;5045080;28;19917;-85
2022/07/27 12:38:32;;;;;;;;;;;;;;;;;;5045426;28;19929;-85
2022/07/27 12:41:18;;;;;;;;;;;;;;;;;;5045074;28;20443;-84
2022/07/27 12:44:05;;;;;;;;;;;;;;;;;;5046982;28;19921;-84
2022/07/27 12:46:51;;;;;;;;;;;;;;;;;;5044897;28;20387;-84
2022/07/27 12:49:39;;;;;;;;;;;;;;;;;;5031846;28;19917;-84
2022/07/27 12:52:25;;;;;;;;;;;;;;;;;;5045167;28;19913;-84
2022/07/27 12:55:12;;;;;;;;;;;;;;;;;;5042894;28;19921;-84
2022/07/27 12:57:58;;;;;;;;;;;;;;;;;;5042732;28;19913;-85
2022/07/27 13:00:44;;;;;;;;;;;;;;;;;;5044592;28;19917;-84
2022/07/27 13:03:31;;;;;;;;;;;;;;;;;;5044168;28;19928;-84
2022/07/27 13:06:17;;;;;;;;;;;;;;;;;;5044720;28;20384;-84
2022/07/27 13:09:04;;;;;;;;;;;;;;;;;;5044429;28;19917;-85
2022/07/27 13:11:51;;;;;;;;;;;;;;;;;;5044005;28;19917;-84
2022/07/27 13:14:37;;;;;;;;;;;;;;;;;;5042287;28;19924;-84
2022/07/27 13:17:23;;;;;;;;;;;;;;;;;;5043292;28;19920;-84
2022/07/27 13:20:11;;;;;;;;;;;;;;;;;;5043585;28;19920;-84
2022/07/27 13:22:57;;;;;;;;;;;;;;;;;;5045152;28;19925;-84
2022/07/27 13:25:44;;;;;;;;;;;;;;;;;;5030509;28;19932;-84
2022/07/27 13:28:30;;;;;;;;;;;;;;;;;;5045802;28;19913;-84
2022/07/27 13:31:17;;;;;;;;;;;;;;;;;;5027749;28;19913;-84
2022/07/27 13:34:03;;;;;;;;;;;;;;;;;;5045436;28;19946;-84
2022/07/27 13:36:50;;;;;;;;;;;;;;;;;;5043795;28;19917;-84
2022/07/27 13:39:36;;;;;;;;;;;;;;;;;;5042618;28;20304;-83
2022/07/27 13:42:24;;;;;;;;;;;;;;;;;;5046090;28;19929;-84
2022/07/27 13:45:11;;;;;;;;;;;;;;;;;;5045252;28;19917;-84
2022/07/27 13:47:57;;;;;;;;;;;;;;;;;;5051363;28;19959;-81
2022/07/27 13:50:44;;;;;;;;;;;;;;;;;;5048148;28;19916;-85
2022/07/27 13:53:30;;;;;;;;;;;;;;;;;;5046365;28;20026;-83
2022/07/27 13:56:17;;;;;;;;;;;;;;;;;;5049985;28;19919;-83
2022/07/27 13:59:06;;;;;;;;;;;;;;;;;;5028079;28;19944;-84
2022/07/27 14:01:53;;;;;;;;;;;;;;;;;;5041325;28;19931;-81
2022/07/27 14:04:39;;;;;;;;;;;;;;;;;;5040841;28;19932;-81
2022/07/27 14:07:26;;;;;;;;;;;;;;;;;;5042130;28;20337;-78
2022/07/27 14:10:30;;;;;;;;;;;;;;;;;;5038579;28;19921;-79
2022/07/27 14:13:17;;;;;;;;;;;;;;;;;;5041821;28;19920;-77
2022/07/27 14:16:05;;;;;;;;;;;;;;;;;;5028335;28;19927;-78
2022/07/27 14:18:51;;;;;;;;;;;;;;;;;;5040954;28;19923;-78
2022/07/27 14:21:38;;;;;;;;;;;;;;;;;;5041652;28;19927;-78
2022/07/27 14:24:27;;;;;;;;;;;;;;;;;;5042259;28;20374;-77
2022/07/27 14:27:14;;;;;;;;;;;;;;;;;;5042471;28;20605;-77
2022/07/27 14:30:00;;;;;;;;;;;;;;;;;;5040488;28;19913;-79
2022/07/27 14:32:47;;;;;;;;;;;;;;;;;;5042954;28;20025;-78
2022/07/27 14:35:33;;;;;;;;;;;;;;;;;;5040651;28;20365;-79
2022/07/27 14:38:20;;;;;;;;;;;;;;;;;;5040588;28;19923;-79
2022/07/27 14:41:07;;;;;;;;;;;;;;;;;;5040452;28;19991;-80
2022/07/27 14:43:53;;;;;;;;;;;;;;;;;;5041186;28;20549;-79
2022/07/27 14:46:40;;;;;;;;;;;;;;;;;;5027997;28;19917;-80
2022/07/27 14:49:26;;;;;;;;;;;;;;;;;;5040774;28;19932;-79
2022/07/27 14:52:13;;;;;;;;;;;;;;;;;;5041981;28;19932;-81
2022/07/27 14:55:00;;;;;;;;;;;;;;;;;;5041244;28;19912;-81
2022/07/27 14:57:47;;;;;;;;;;;;;;;;;;5027302;28;20258;-81
2022/07/27 15:00:33;;;;;;;;;;;;;;;;;;5043736;28;19923;-79
2022/07/27 15:03:20;;;;;;;;;;;;;;;;;;5042083;28;21065;-77
2022/07/27 15:06:06;;;;;;;;;;;;;;;;;;5040530;28;19916;-76
2022/07/27 15:08:53;;;;;;;;;;;;;;;;;;5039607;28;19913;-77
2022/07/27 15:11:40;;;;;;;;;;;;;;;;;;5040591;28;19913;-78
2022/07/27 15:14:26;;;;;;;;;;;;;;;;;;5040181;28;19935;-77
2022/07/27 15:17:13;;;;;;;;;;;;;;;;;;5041881;28;19924;-78
2022/07/27 15:19:59;;;;;;;;;;;;;;;;;;5042908;28;19913;-79
2022/07/27 15:22:46;;;;;;;;;;;;;;;;;;5026804;28;19920;-78
2022/07/27 15:25:32;;;;;;;;;;;;;;;;;;5042694;28;19921;-79
2022/07/27 15:28:19;;;;;;;;;;;;;;;;;;5039330;28;19931;-79
2022/07/27 15:31:05;;;;;;;;;;;;;;;;;;5028279;28;19908;-79
2022/07/27 15:33:52;;;;;;;;;;;;;;;;;;5043532;28;19923;-79
2022/07/27 15:36:38;;;;;;;;;;;;;;;;;;5028920;28;19916;-79
2022/07/27 15:39:25;;;;;;;;;;;;;;;;;;5029456;28;19919;-79
2022/07/27 15:42:11;;;;;;;;;;;;;;;;;;5042186;28;19924;-79
2022/07/27 15:44:58;;;;;;;;;;;;;;;;;;5044724;28;20348;-79
2022/07/27 15:47:44;;;;;;;;;;;;;;;;;;5047349;28;19921;-79
2022/07/27 15:50:31;;;;;;;;;;;;;;;;;;5044018;28;19924;-77
2022/07/27 15:53:17;;;;;;;;;;;;;;;;;;5048069;28;19913;-78
2022/07/27 15:56:04;;;;;;;;;;;;;;;;;;5043868;28;19917;-79
2022/07/27 15:58:50;;;;;;;;;;;;;;;;;;5045047;28;20408;-77
2022/07/27 16:01:37;;;;;;;;;;;;;;;;;;5044819;28;19928;-78
2022/07/27 16:04:24;;;;;;;;;;;;;;;;;;5045219;28;19916;-78
2022/07/27 16:07:11;;;;;;;;;;;;;;;;;;5044378;28;19924;-78
2022/07/27 16:09:57;;;;;;;;;;;;;;;;;;5046546;28;20380;-78
2022/07/27 16:12:44;;;;;;;;;;;;;;;;;;5030967;28;19917;-76
2022/07/27 16:18:35;;;;;;;;;;;;;;;;;;5043774;28;19928;-77
2022/07/27 16:21:22;;;;;;;;;;;;;;;;;;5043600;28;19912;-78
2022/07/27 16:24:09;;;;;;;;;;;;;;;;;;5043509;28;20854;-77
2022/07/27 16:26:56;;;;;;;;;;;;;;;;;;5043614;28;19913;-78
2022/07/27 16:29:42;;;;;;;;;;;;;;;;;;5044573;28;19923;-77
2022/07/27 16:32:29;;;;;;;;;;;;;;;;;;5042764;28;19932;-78
2022/07/27 16:35:15;;;;;;;;;;;;;;;;;;5044485;28;19919;-77
2022/07/27 16:38:02;;;;;;;;;;;;;;;;;;5044849;28;19912;-78
2022/07/27 16:40:48;;;;;;;;;;;;;;;;;;5041982;28;19913;-78
2022/07/27 16:43:35;;;;;;;;;;;;;;;;;;5041116;28;19921;-79
2022/07/27 16:46:21;;;;;;;;;;;;;;;;;;5043676;28;19927;-78
2022/07/27 16:49:08;;;;;;;;;;;;;;;;;;5045733;28;19920;-77
2022/07/27 16:51:54;;;;;;;;;;;;;;;;;;5043179;28;19919;-78
2022/07/27 16:54:41;;;;;;;;;;;;;;;;;;5044155;28;19927;-79
2022/07/27 16:57:27;;;;;;;;;;;;;;;;;;5043551;28;19909;-77
2022/07/27 17:00:14;;;;;;;;;;;;;;;;;;5041038;28;20351;-76
2022/07/27 17:03:00;;;;;;;;;;;;;;;;;;5044573;28;19936;-78
2022/07/27 17:05:47;;;;;;;;;;;;;;;;;;5044448;28;19983;-78
2022/07/27 17:08:34;;;;;;;;;;;;;;;;;;5043717;28;19924;-78
2022/07/27 17:11:21;;;;;;;;;;;;;;;;;;5041929;28;19917;-80
2022/07/27 17:14:09;;;;;;;;;;;;;;;;;;5043164;28;20412;-78
2022/07/27 17:16:55;;;;;;;;;;;;;;;;;;5043830;28;19916;-76
2022/07/27 17:19:42;;;;;;;;;;;;;;;;;;5044442;28;19916;-77
2022/07/27 17:22:28;;;;;;;;;;;;;;;;;;5043904;28;19921;-76
2022/07/27 17:25:15;;;;;;;;;;;;;;;;;;5045140;28;19920;-78
2022/07/27 17:28:02;;;;;;;;;;;;;;;;;;5029614;28;19920;-78
2022/07/27 17:30:48;;;;;;;;;;;;;;;;;;5042967;28;19917;-78
2022/07/27 17:33:35;;;;;;;;;;;;;;;;;;5045646;28;19937;-78
2022/07/27 17:36:21;;;;;;;;;;;;;;;;;;5043959;28;19916;-78
2022/07/27 17:39:09;;;;;;;;;;;;;;;;;;5042323;28;19921;-77
2022/07/27 17:41:56;;;;;;;;;;;;;;;;;;5025788;28;19923;-78
2022/07/27 17:44:42;;;;;;;;;;;;;;;;;;5039968;28;19920;-78
2022/07/27 17:47:29;;;;;;;;;;;;;;;;;;5043425;28;20608;-77
2022/07/27 17:50:18;;;;;;;;;;;;;;;;;;5043090;28;20505;-79
2022/07/27 17:53:04;;;;;;;;;;;;;;;;;;5041113;28;19936;-78
2022/07/27 17:55:52;;;;;;;;;;;;;;;;;;5043086;28;19917;-78
2022/07/27 17:58:39;;;;;;;;;;;;;;;;;;5042350;28;19927;-78
2022/07/27 18:01:25;;;;;;;;;;;;;;;;;;5029008;28;19913;-76
2022/07/27 18:04:12;;;;;;;;;;;;;;;;;;5040560;28;19967;-77
2022/07/27 18:06:58;;;;;;;;;;;;;;;;;;5040546;28;20372;-78
2022/07/27 18:09:45;;;;;;;;;;;;;;;;;;5028068;28;19996;-78
2022/07/27 18:12:33;;;;;;;;;;;;;;;;;;5038413;28;19913;-79
2022/07/27 18:18:24;;;;;;;;;;;;;;;;;;5041330;28;19917;-78
2022/07/27 18:21:12;;;;;;;;;;;;;;;;;;5043140;28;19920;-78
2022/07/27 18:23:58;;;;;;;;;;;;;;;;;;5041825;28;19921;-78
2022/07/27 18:26:45;;;;;;;;;;;;;;;;;;5041746;28;19916;-77
2022/07/27 18:29:31;;;;;;;;;;;;;;;;;;5042731;28;19916;-77
2022/07/27 18:32:18;;;;;;;;;;;;;;;;;;5044482;28;19935;-77
2022/07/27 18:35:04;;;;;;;;;;;;;;;;;;5041835;28;19917;-77
2022/07/27 18:37:51;;;;;;;;;;;;;;;;;;5041465;28;19928;-77
2022/07/27 18:40:38;;;;;;;;;;;;;;;;;;5039717;28;19923;-77
2022/07/27 18:43:24;;;;;;;;;;;;;;;;;;5023531;28;20352;-77
2022/07/27 18:46:11;;;;;;;;;;;;;;;;;;5041408;28;19920;-76
2022/07/27 18:48:57;;;;;;;;;;;;;;;;;;5040232;28;20019;-77
2022/07/27 18:51:44;;;;;;;;;;;;;;;;;;5040751;28;19928;-77
2022/07/27 18:54:30;;;;;;;;;;;;;;;;;;5040753;28;20666;-78
2022/07/27 18:57:19;;;;;;;;;;;;;;;;;;5041285;28;19923;-77
2022/07/27 19:00:05;;;;;;;;;;;;;;;;;;5038509;28;19974;-77
2022/07/27 19:02:54;;;;;;;;;;;;;;;;;;5037815;28;19940;-77
2022/07/27 19:05:41;;;;;;;;;;;;;;;;;;5039763;28;19923;-78
2022/07/27 19:08:28;;;;;;;;;;;;;;;;;;5027009;28;19916;-78
2022/07/27 19:11:14;;;;;;;;;;;;;;;;;;5040722;28;19916;-78